Time;durP1;ratioP1;P1;durP2;ratioP2;P2;SDS_P1;SDS_P2;PMS_P1;PMS_P2;Temp;Humidity;BMP_temperature;BMP_pressure;BME280_temperature;BME280_humidity;BME280_pressure;Samples;Min_cycle;Max_cycle;Signal;HPM_P1;HPM_P2
2021/03/05 00:00:24;;;;;;;4.45;2.38;;;4.80;93.40;;;;;;5007301;28;20080;-70
2021/03/05 00:02:54;;;;;;;5.60;2.58;;;4.80;93.40;;;;;;5007316;28;20136;-70
2021/03/05 00:05:30;;;;;;;4.30;2.42;;;4.80;93.40;;;;;;5004971;28;20099;-70
2021/03/05 00:07:56;;;;;;;4.53;2.50;;;4.80;93.50;;;;;;5001207;28;20047;-70
2021/03/05 00:10:32;;;;;;;5.22;2.10;;;4.80;93.50;;;;;;5006243;28;20078;-70
2021/03/05 00:12:59;;;;;;;5.43;2.53;;;4.80;93.50;;;;;;5003277;28;20755;-70
2021/03/05 00:15:31;;;;;;;4.55;2.30;;;4.70;93.50;;;;;;5004299;28;20061;-70
2021/03/05 00:17:58;;;;;;;4.35;2.47;;;4.70;93.50;;;;;;5006600;28;20096;-70
2021/03/05 00:20:27;;;;;;;5.55;2.90;;;4.70;93.50;;;;;;5006013;28;20052;-70
2021/03/05 00:22:55;;;;;;;4.38;2.65;;;4.70;93.50;;;;;;5005804;28;20042;-70
2021/03/05 00:25:21;;;;;;;7.05;3.25;;;4.70;93.50;;;;;;5005396;28;20056;-70
2021/03/05 00:27:48;;;;;;;5.93;2.75;;;4.70;93.50;;;;;;5005504;28;20042;-70
2021/03/05 00:30:16;;;;;;;5.75;2.97;;;4.60;93.40;;;;;;5006920;28;20042;-70
2021/03/05 00:32:43;;;;;;;6.10;2.55;;;4.60;93.40;;;;;;5008573;28;20046;-70
2021/03/05 00:35:11;;;;;;;5.68;3.17;;;4.60;93.50;;;;;;5010043;28;20385;-69
2021/03/05 00:37:40;;;;;;;5.63;2.63;;;4.60;93.50;;;;;;5006065;28;20054;-70
2021/03/05 00:40:12;;;;;;;8.30;3.13;;;4.60;93.40;;;;;;5006536;28;20102;-70
2021/03/05 00:42:40;;;;;;;5.65;2.80;;;4.50;93.30;;;;;;5006549;28;20481;-70
2021/03/05 00:45:08;;;;;;;5.80;2.85;;;4.40;93.20;;;;;;5007875;28;20086;-70
2021/03/05 00:47:35;;;;;;;6.35;3.28;;;4.40;93.10;;;;;;5005856;28;20527;-70
2021/03/05 00:50:06;;;;;;;6.15;3.00;;;4.30;93.10;;;;;;5005509;28;20149;-70
2021/03/05 00:52:33;;;;;;;6.85;3.10;;;4.20;93.00;;;;;;5098208;27;20130;-70
2021/03/05 00:54:59;;;;;;;5.82;2.97;;;4.10;92.90;;;;;;5006452;28;20041;-70
2021/03/05 00:57:27;;;;;;;4.90;2.53;;;4.10;92.90;;;;;;5003353;28;20358;-70
2021/03/05 00:59:53;;;;;;;5.28;2.85;;;4.00;92.80;;;;;;5003769;28;20060;-70
2021/03/05 01:02:19;;;;;;;4.72;2.80;;;4.00;92.70;;;;;;5009971;28;20056;-70
2021/03/05 01:04:46;;;;;;;6.10;2.90;;;3.90;92.60;;;;;;5003600;28;20165;-71
2021/03/05 01:07:12;;;;;;;5.32;3.13;;;3.80;92.50;;;;;;5008196;28;20056;-70
2021/03/05 01:09:40;;;;;;;6.68;4.35;;;3.80;92.50;;;;;;5003711;28;20070;-70
2021/03/05 01:12:06;;;;;;;4.57;3.85;;;3.70;92.40;;;;;;5006118;28;20473;-70
2021/03/05 01:14:33;;;;;;;5.80;4.15;;;3.70;92.40;;;;;;5005335;28;20687;-70
2021/03/05 01:16:59;;;;;;;5.55;4.05;;;3.60;92.40;;;;;;5003724;28;20042;-70
2021/03/05 01:19:27;;;;;;;5.80;3.55;;;3.50;92.30;;;;;;5007706;28;20053;-69
2021/03/05 01:21:54;;;;;;;4.82;2.90;;;3.50;92.40;;;;;;5005697;28;20457;-71
2021/03/05 01:24:20;;;;;;;6.85;3.03;;;3.40;92.30;;;;;;5006778;28;20058;-70
2021/03/05 01:26:48;;;;;;;5.55;3.40;;;3.40;92.40;;;;;;5005023;28;20052;-70
2021/03/05 01:29:14;;;;;;;5.18;2.88;;;3.40;92.30;;;;;;5001754;28;20047;-70
2021/03/05 01:31:41;;;;;;;5.13;2.67;;;3.30;92.30;;;;;;5005744;28;20136;-69
2021/03/05 01:34:07;;;;;;;4.90;2.75;;;3.30;92.20;;;;;;5006514;28;20046;-69
2021/03/05 01:36:35;;;;;;;6.45;3.13;;;3.20;92.20;;;;;;4996792;28;20069;-69
2021/03/05 01:39:03;;;;;;;6.07;3.10;;;3.20;92.10;;;;;;5006285;28;20370;-70
2021/03/05 01:41:30;;;;;;;5.40;2.72;;;3.20;92.10;;;;;;5005998;28;20137;-70
2021/03/05 01:43:56;;;;;;;4.22;2.85;;;3.20;92.10;;;;;;5006297;28;20452;-70
2021/03/05 01:46:23;;;;;;;4.57;2.88;;;3.10;92.00;;;;;;5005343;28;20056;-70
2021/03/05 01:48:50;;;;;;;5.18;2.85;;;3.10;92.00;;;;;;5004608;28;20054;-70
2021/03/05 01:51:22;;;;;;;5.70;3.17;;;3.10;92.00;;;;;;5004127;28;20050;-71
2021/03/05 01:53:49;;;;;;;4.57;2.92;;;3.00;91.90;;;;;;5006256;28;20038;-70
2021/03/05 01:56:36;;;;;;;4.57;2.72;;;3.00;91.90;;;;;;5102293;27;20133;-70
2021/03/05 01:59:04;;;;;;;4.95;2.95;;;3.00;91.90;;;;;;5001372;28;20074;-70
2021/03/05 02:01:31;;;;;;;4.03;2.80;;;3.00;91.80;;;;;;5003570;28;20416;-70
2021/03/05 02:03:58;;;;;;;5.43;3.00;;;2.90;91.80;;;;;;5001978;28;20363;-70
2021/03/05 02:06:24;;;;;;;4.65;3.08;;;2.90;91.80;;;;;;5001797;28;20056;-70
2021/03/05 02:08:51;;;;;;;6.20;3.20;;;2.90;91.70;;;;;;5005828;28;20499;-70
2021/03/05 02:11:25;;;;;;;5.07;2.95;;;2.80;91.70;;;;;;5002377;28;20052;-69
2021/03/05 02:13:54;;;;;;;5.15;3.08;;;2.80;91.70;;;;;;5005678;28;20042;-70
2021/03/05 02:16:46;;;;;;;4.95;2.95;;;2.70;91.60;;;;;;5010338;28;20054;-70
2021/03/05 02:19:41;;;;;;;4.40;2.70;;;2.70;91.60;;;;;;5006485;28;20060;-70
2021/03/05 02:22:45;;;;;;;4.47;2.67;;;2.70;91.60;;;;;;5000790;28;20057;-70
2021/03/05 02:25:20;;;;;;;4.15;2.85;;;2.60;91.50;;;;;;5003874;28;20052;-70
2021/03/05 02:28:27;;;;;;;4.55;2.70;;;2.60;91.50;;;;;;5005450;28;20050;-70
2021/03/05 02:31:08;;;;;;;5.47;2.60;;;2.50;91.50;;;;;;4987885;28;20041;-70
2021/03/05 02:33:46;;;;;;;3.65;2.30;;;2.40;91.50;;;;;;5005073;28;20054;-70
2021/03/05 02:36:18;;;;;;;4.95;2.65;;;2.40;91.50;;;;;;4999799;28;20042;-70
2021/03/05 02:38:58;;;;;;;5.53;2.45;;;2.40;91.50;;;;;;5005096;28;20658;-70
2021/03/05 02:41:24;;;;;;;;;;;2.30;91.40;;;;;;5004943;28;20947;-70
2021/03/05 02:43:52;;;;;;;4.35;2.22;;;2.30;91.60;;;;;;5010701;28;19921;-71
2021/03/05 02:46:20;;;;;;;4.38;2.55;;;2.30;91.50;;;;;;5004586;28;20052;-70
2021/03/05 02:48:47;;;;;;;4.50;2.72;;;2.20;91.40;;;;;;5004903;28;20050;-70
2021/03/05 02:51:17;;;;;;;4.95;2.67;;;2.20;91.40;;;;;;5005593;28;20061;-70
2021/03/05 02:53:44;;;;;;;3.72;2.63;;;2.10;91.40;;;;;;5000099;28;20049;-70
2021/03/05 02:56:18;;;;;;;4.53;2.40;;;2.10;91.50;;;;;;5002638;28;20037;-70
2021/03/05 02:58:49;;;;;;;5.53;2.83;;;2.00;91.40;;;;;;5002747;28;20096;-70
2021/03/05 03:01:17;;;;;;;5.45;2.35;;;2.00;91.40;;;;;;5004450;28;20052;-69
2021/03/05 03:03:44;;;;;;;5.13;2.47;;;2.00;91.50;;;;;;5102239;27;20140;-70
2021/03/05 03:06:12;;;;;;;5.05;2.58;;;1.90;91.50;;;;;;5004505;28;20042;-70
2021/03/05 03:08:40;;;;;;;6.40;2.47;;;1.90;91.50;;;;;;5003657;28;20054;-70
2021/03/05 03:11:07;;;;;;;6.25;2.25;;;1.90;91.50;;;;;;5003267;28;20388;-70
2021/03/05 03:13:35;;;;;;;3.95;2.40;;;1.90;91.50;;;;;;5002018;28;20053;-70
2021/03/05 03:16:04;;;;;;;4.80;2.58;;;1.80;91.40;;;;;;5004324;28;20070;-70
2021/03/05 03:18:33;;;;;;;4.40;2.28;;;1.80;91.50;;;;;;5001903;28;20050;-70
2021/03/05 03:21:01;;;;;;;3.38;2.05;;;1.80;91.40;;;;;;5002660;28;20038;-70
2021/03/05 03:23:27;;;;;;;5.28;2.60;;;1.80;91.40;;;;;;5004655;28;20457;-70
2021/03/05 03:25:55;;;;;;;5.20;2.33;;;1.80;91.70;;;;;;5002213;28;20061;-69
2021/03/05 03:28:21;;;;;;;5.25;2.40;;;1.80;91.40;;;;;;5003619;28;20042;-70
2021/03/05 03:30:47;;;;;;;4.53;2.50;;;1.80;91.70;;;;;;5000787;28;20042;-69
2021/03/05 03:33:14;;;;;;;3.42;2.65;;;1.80;91.30;;;;;;5009118;28;20550;-69
2021/03/05 03:35:41;;;;;;;3.95;2.08;;;1.80;91.30;;;;;;5003924;28;20046;-70
2021/03/05 03:38:10;;;;;;;4.70;2.23;;;1.70;91.30;;;;;;5010421;28;20058;-70
2021/03/05 03:40:37;;;;;;;4.07;2.65;;;1.70;91.20;;;;;;5006685;28;20138;-70
2021/03/05 03:43:05;;;;;;;4.13;2.45;;;1.70;91.20;;;;;;5006632;28;20053;-69
2021/03/05 03:45:32;;;;;;;6.53;2.20;;;1.70;91.20;;;;;;5011493;28;20404;-70
2021/03/05 03:48:01;;;;;;;4.90;2.08;;;1.70;91.20;;;;;;5001203;28;20537;-70
2021/03/05 03:50:32;;;;;;;3.70;2.00;;;1.60;91.10;;;;;;5008311;28;20064;-70
2021/03/05 03:53:06;;;;;;;5.15;2.03;;;1.60;91.20;;;;;;5003118;28;20039;-70
2021/03/05 03:55:32;;;;;;;3.08;2.40;;;1.60;91.10;;;;;;5006569;28;20050;-70
2021/03/05 03:58:00;;;;;;;4.18;2.67;;;1.60;91.10;;;;;;5004101;28;20130;-69
2021/03/05 04:00:27;;;;;;;2.90;1.95;;;1.50;91.00;;;;;;5006089;28;20129;-69
2021/03/05 04:02:56;;;;;;;5.15;2.17;;;1.50;91.00;;;;;;5006154;28;20073;-70
2021/03/05 04:05:26;;;;;;;3.92;2.38;;;1.50;91.00;;;;;;5006662;28;20146;-70
2021/03/05 04:07:55;;;;;;;5.78;2.28;;;1.50;91.00;;;;;;5102434;27;20074;-70
2021/03/05 04:10:22;;;;;;;3.58;1.98;;;1.40;90.90;;;;;;5000515;28;20046;-69
2021/03/05 04:12:49;;;;;;;4.35;2.00;;;1.40;90.90;;;;;;5010354;28;20054;-70
2021/03/05 04:15:17;;;;;;;4.03;2.10;;;1.30;90.80;;;;;;5004136;28;20052;-69
2021/03/05 04:17:45;;;;;;;4.13;2.67;;;1.30;90.80;;;;;;5011099;28;20041;-70
2021/03/05 04:20:16;;;;;;;3.50;2.25;;;1.20;90.70;;;;;;5001547;28;20535;-70
2021/03/05 04:22:47;;;;;;;3.97;2.30;;;1.20;90.70;;;;;;5006900;28;20060;-69
2021/03/05 04:25:16;;;;;;;3.50;2.08;;;1.10;90.70;;;;;;5022538;28;20066;-69
2021/03/05 04:27:45;;;;;;;3.78;2.10;;;1.00;90.70;;;;;;5008507;28;20058;-70
2021/03/05 04:30:13;;;;;;;5.10;2.80;;;1.00;90.70;;;;;;5007897;28;20137;-70
2021/03/05 04:32:41;;;;;;;4.85;1.90;;;1.00;90.70;;;;;;5007186;28;20041;-70
2021/03/05 04:35:12;;;;;;;4.07;1.92;;;0.90;90.70;;;;;;5010638;28;20046;-70
2021/03/05 04:37:39;;;;;;;4.70;2.28;;;0.90;90.60;;;;;;5005977;28;20056;-70
2021/03/05 04:40:08;;;;;;;4.50;2.05;;;0.80;90.60;;;;;;4999527;28;20046;-70
2021/03/05 04:42:34;;;;;;;4.60;2.40;;;0.80;90.60;;;;;;5096950;27;20064;-70
2021/03/05 04:45:02;;;;;;;4.45;2.53;;;0.80;90.70;;;;;;5002978;28;20076;-70
2021/03/05 04:47:29;;;;;;;4.13;1.85;;;0.70;90.60;;;;;;4999052;28;20857;-69
2021/03/05 04:49:55;;;;;;;3.60;1.95;;;0.70;90.60;;;;;;5094171;27;20122;-70
2021/03/05 04:52:22;;;;;;;3.80;2.05;;;0.70;90.90;;;;;;5000563;28;20046;-70
2021/03/05 04:54:50;;;;;;;3.70;2.15;;;0.70;90.60;;;;;;5006518;28;20132;-70
2021/03/05 04:57:16;;;;;;;5.55;2.13;;;0.70;90.60;;;;;;4998257;28;20060;-70
2021/03/05 04:59:42;;;;;;;5.00;2.40;;;0.70;90.60;;;;;;4997013;28;20523;-70
2021/03/05 05:02:09;;;;;;;4.07;2.10;;;0.70;90.60;;;;;;5000613;28;20046;-69
2021/03/05 05:04:35;;;;;;;2.97;1.92;;;0.60;90.60;;;;;;4997535;28;20057;-70
2021/03/05 05:07:02;;;;;;;2.83;1.80;;;0.60;90.50;;;;;;4998932;28;20147;-70
2021/03/05 05:09:28;;;;;;;3.15;1.90;;;0.60;90.50;;;;;;5006446;28;20503;-70
2021/03/05 05:11:54;;;;;;;3.58;1.83;;;0.60;90.50;;;;;;5002722;28;20396;-70
2021/03/05 05:14:20;;;;;;;3.53;1.67;;;0.60;90.40;;;;;;4999299;28;20464;-70
2021/03/05 05:16:46;;;;;;;3.88;1.75;;;0.50;90.40;;;;;;5002926;28;20138;-70
2021/03/05 05:19:13;;;;;;;2.63;1.60;;;0.50;90.40;;;;;;4998428;28;20496;-70
2021/03/05 05:21:39;;;;;;;4.53;1.98;;;0.50;90.40;;;;;;5004378;28;20050;-69
2021/03/05 05:24:06;;;;;;;4.63;2.40;;;0.40;90.40;;;;;;4998360;28;20042;-70
2021/03/05 05:26:33;;;;;;;3.90;1.67;;;0.40;90.40;;;;;;4998482;28;20481;-70
2021/03/05 05:28:59;;;;;;;3.22;1.58;;;0.40;90.40;;;;;;4997562;28;20045;-70
2021/03/05 05:31:26;;;;;;;3.38;1.98;;;0.30;90.40;;;;;;4997513;28;21016;-69
2021/03/05 05:33:52;;;;;;;3.88;1.77;;;0.30;90.30;;;;;;5100100;27;20049;-70
2021/03/05 05:36:18;;;;;;;3.03;1.90;;;0.30;90.30;;;;;;5005742;28;20081;-69
2021/03/05 05:38:45;;;;;;;2.15;1.48;;;0.30;90.30;;;;;;5103796;27;20531;-70
2021/03/05 05:41:14;;;;;;;3.75;2.00;;;0.30;90.30;;;;;;5006689;28;20512;-69
2021/03/05 05:43:41;;;;;;;4.75;1.83;;;0.20;90.20;;;;;;4998528;28;20054;-69
2021/03/05 05:46:10;;;;;;;3.70;2.00;;;0.20;90.20;;;;;;5007158;28;20110;-70
2021/03/05 05:48:50;;;;;;;4.10;2.10;;;0.20;90.20;;;;;;5000529;28;20065;-69
2021/03/05 05:51:21;;;;;;;3.05;1.80;;;0.10;90.10;;;;;;5099257;27;20085;-70
2021/03/05 05:54:21;;;;;;;3.35;1.80;;;0.00;90.10;;;;;;5000114;28;20050;-70
2021/03/05 06:00:35;;;;;;;4.60;1.75;;;0.00;90.20;;;;;;5000285;28;20033;-70
2021/03/05 06:03:33;;;;;;;2.65;1.65;;;0.00;90.10;;;;;;5002070;28;20054;-70
2021/03/05 06:06:00;;;;;;;5.60;2.10;;;-0.10;90.10;;;;;;5006432;28;20046;-70
2021/03/05 06:09:10;;;;;;;3.53;1.65;;;-0.10;90.10;;;;;;5096197;27;20053;-70
2021/03/05 06:11:38;;;;;;;2.65;1.60;;;-0.10;90.00;;;;;;5104114;27;20137;-70
2021/03/05 06:14:45;;;;;;;2.53;1.58;;;-0.20;90.00;;;;;;5006855;28;20304;-70
2021/03/05 06:17:44;;;;;;;2.70;1.63;;;-0.20;90.00;;;;;;5097515;27;20041;-70
2021/03/05 06:20:11;;;;;;;3.75;2.00;;;-0.20;90.10;;;;;;5002608;28;20090;-70
2021/03/05 06:22:38;;;;;;;3.35;1.80;;;-0.20;90.10;;;;;;5000511;28;20720;-70
2021/03/05 06:29:08;;;;;;;3.75;1.95;;;-0.20;90.00;;;;;;4977414;28;20090;-69
2021/03/05 06:31:35;;;;;;;3.33;2.10;;;-0.30;90.00;;;;;;5009761;28;20049;-70
2021/03/05 06:34:03;;;;;;;8.65;2.10;;;-0.30;90.00;;;;;;5001345;28;20145;-70
2021/03/05 06:36:29;;;;;;;3.28;1.88;;;-0.30;90.10;;;;;;5109610;27;20046;-70
2021/03/05 06:38:56;;;;;;;3.05;1.60;;;-0.30;90.20;;;;;;5001370;28;20056;-70
2021/03/05 06:41:23;;;;;;;2.80;1.77;;;-0.30;90.20;;;;;;5001844;28;20050;-69
2021/03/05 06:43:55;;;;;;;3.78;1.70;;;-0.20;90.30;;;;;;5005998;28;20046;-70
2021/03/05 06:46:30;;;;;;;4.20;1.60;;;-0.20;90.40;;;;;;5002219;28;20578;-70
2021/03/05 06:48:58;;;;;;;2.85;1.42;;;-0.10;90.40;;;;;;5000748;28;20345;-70
2021/03/05 06:51:28;;;;;;;3.65;1.52;;;0.00;90.50;;;;;;5000647;28;20064;-70
2021/03/05 06:54:12;;;;;;;2.28;1.50;;;0.00;90.50;;;;;;5007949;28;20142;-70
2021/03/05 06:56:51;;;;;;;2.47;1.40;;;0.10;90.60;;;;;;4985830;28;20091;-70
2021/03/05 06:59:19;;;;;;;3.90;1.65;;;0.20;90.70;;;;;;5006702;28;20048;-70
2021/03/05 07:01:47;;;;;;;2.77;1.30;;;0.30;90.70;;;;;;5002184;28;20050;-70
2021/03/05 07:04:44;;;;;;;2.53;1.80;;;0.40;90.80;;;;;;4999333;28;20078;-70
2021/03/05 07:07:12;;;;;;;2.53;1.50;;;0.50;90.80;;;;;;5003432;28;20050;-70
2021/03/05 07:13:19;;;;;;;1.80;1.20;;;0.70;90.90;;;;;;5001482;28;20099;-70
2021/03/05 07:15:54;;;;;;;2.00;1.10;;;0.80;91.00;;;;;;5114175;27;20042;-70
2021/03/05 07:18:20;;;;;;;2.65;1.40;;;0.90;91.00;;;;;;5005014;28;20042;-70
2021/03/05 07:20:47;;;;;;;2.28;1.30;;;1.00;91.10;;;;;;5007460;28;20046;-69
2021/03/05 07:23:14;;;;;;;4.20;1.95;;;1.10;91.20;;;;;;5009232;28;20060;-69
2021/03/05 07:25:41;;;;;;;2.33;1.30;;;1.20;91.30;;;;;;5005562;28;20049;-70
2021/03/05 07:35:43;;;;;;;2.80;1.50;;;1.50;91.60;;;;;;5005418;28;20084;-70
2021/03/05 07:38:14;;;;;;;2.05;1.38;;;1.70;91.70;;;;;;5002975;28;20315;-70
2021/03/05 07:40:44;;;;;;;2.28;1.40;;;1.80;91.80;;;;;;5004706;28;20038;-70
2021/03/05 07:43:14;;;;;;;5.53;1.40;;;1.90;91.80;;;;;;5105673;27;20110;-69
2021/03/05 07:45:40;;;;;;;2.77;1.27;;;2.00;91.90;;;;;;5006353;28;20050;-70
2021/03/05 07:48:11;;;;;;;3.55;1.45;;;2.10;92.00;;;;;;5005317;28;20712;-69
2021/03/05 07:50:38;;;;;;;2.60;1.40;;;2.20;92.10;;;;;;5113327;27;20435;-70
2021/03/05 07:53:04;;;;;;;1.60;1.10;;;2.30;92.10;;;;;;5007579;28;20544;-69
2021/03/05 07:55:39;;;;;;;2.85;1.40;;;2.40;92.20;;;;;;5003485;28;20038;-70
2021/03/05 07:58:06;;;;;;;2.00;1.30;;;2.50;92.20;;;;;;4998617;28;20042;-70
2021/03/05 08:00:48;;;;;;;2.65;1.42;;;2.70;92.30;;;;;;5003853;28;20390;-70
2021/03/05 08:03:18;;;;;;;2.33;1.20;;;2.80;92.30;;;;;;5004714;28;20446;-70
2021/03/05 08:05:47;;;;;;;2.00;1.20;;;2.90;92.40;;;;;;5006621;28;20041;-70
2021/03/05 08:08:19;;;;;;;5.15;1.80;;;3.00;92.40;;;;;;5001522;28;20054;-70
2021/03/05 08:10:55;;;;;;;3.30;1.65;;;3.10;92.40;;;;;;5101109;27;20129;-70
2021/03/05 08:13:54;;;;;;;2.75;1.40;;;3.20;92.50;;;;;;5005137;28;20042;-70
2021/03/05 08:16:30;;;;;;;2.00;1.13;;;3.30;92.60;;;;;;5004173;28;20103;-70
2021/03/05 08:19:06;;;;;;;4.18;1.35;;;3.50;92.60;;;;;;5005032;28;20136;-70
2021/03/05 08:22:00;;;;;;;3.80;1.67;;;3.60;92.60;;;;;;5105866;27;20038;-70
2021/03/05 08:24:36;;;;;;;2.22;1.33;;;3.70;92.70;;;;;;5009200;28;20078;-70
2021/03/05 08:27:04;;;;;;;3.55;1.60;;;3.90;92.80;;;;;;5006103;28;20081;-70
2021/03/05 08:29:47;;;;;;;2.90;1.33;;;4.00;92.70;;;;;;5006779;28;20135;-70
2021/03/05 08:32:31;;;;;;;4.53;1.77;;;4.10;92.80;;;;;;5002483;28;20545;-70
2021/03/05 08:35:04;;;;;;;1.98;1.08;;;4.30;92.90;;;;;;5002338;28;20442;-70
2021/03/05 08:37:59;;;;;;;3.63;1.15;;;4.40;92.80;;;;;;5111157;27;20052;-70
2021/03/05 08:40:28;;;;;;;2.53;1.00;;;4.50;92.80;;;;;;5006677;28;20042;-70
2021/03/05 08:42:57;;;;;;;1.63;0.93;;;4.60;92.80;;;;;;5004641;28;20061;-69
2021/03/05 08:45:29;;;;;;;2.13;0.85;;;4.70;92.80;;;;;;5003099;28;20077;-70
2021/03/05 08:47:59;;;;;;;2.78;0.90;;;4.80;92.70;;;;;;4998279;28;20133;-70
2021/03/05 08:50:31;;;;;;;3.28;1.15;;;4.90;92.70;;;;;;5109812;27;20060;-70
2021/03/05 08:53:06;;;;;;;2.67;0.70;;;5.10;92.60;;;;;;5006422;28;20033;-69
2021/03/05 08:55:34;;;;;;;2.03;0.88;;;5.10;92.50;;;;;;5005216;28;20449;-70
2021/03/05 08:58:01;;;;;;;1.33;0.70;;;5.20;92.40;;;;;;5003826;28;20046;-70
2021/03/05 09:00:33;;;;;;;1.77;0.70;;;5.40;92.50;;;;;;5005013;28;20303;-70
2021/03/05 09:03:14;;;;;;;4.10;0.73;;;5.40;92.40;;;;;;5003002;28;20056;-70
2021/03/05 09:05:51;;;;;;;2.50;0.70;;;5.50;92.20;;;;;;5005563;28;20429;-70
2021/03/05 09:08:22;;;;;;;3.13;0.70;;;5.60;92.10;;;;;;5005638;28;20103;-70
2021/03/05 09:10:52;;;;;;;1.88;0.70;;;5.60;92.00;;;;;;5005267;28;20520;-70
2021/03/05 09:13:31;;;;;;;2.30;1.00;;;5.70;91.80;;;;;;5001744;28;20043;-70
2021/03/05 09:16:02;;;;;;;2.60;1.10;;;5.80;92.00;;;;;;4999882;28;20050;-70
2021/03/05 09:18:31;;;;;;;1.33;0.70;;;5.90;91.90;;;;;;5000412;28;20516;-70
2021/03/05 09:21:01;;;;;;;1.95;0.52;;;6.00;91.90;;;;;;5002206;28;20046;-70
2021/03/05 09:23:33;;;;;;;1.55;0.80;;;6.10;91.60;;;;;;5003740;28;20042;-70
2021/03/05 09:26:05;;;;;;;1.23;0.60;;;6.20;91.50;;;;;;5002830;28;20058;-70
2021/03/05 09:28:43;;;;;;;1.65;0.52;;;6.30;91.60;;;;;;5002531;28;20142;-70
2021/03/05 09:31:13;;;;;;;1.05;0.60;;;6.30;91.50;;;;;;5000969;28;20133;-70
2021/03/05 09:33:45;;;;;;;1.90;0.73;;;6.40;91.40;;;;;;5002675;28;20102;-70
2021/03/05 09:36:22;;;;;;;0.90;0.60;;;6.40;91.00;;;;;;5110480;27;20081;-70
2021/03/05 09:39:02;;;;;;;1.50;0.60;;;6.40;90.90;;;;;;5004362;28;20484;-70
2021/03/05 09:41:30;;;;;;;1.90;0.80;;;6.50;90.90;;;;;;5004171;28;20125;-70
2021/03/05 09:44:04;;;;;;;1.00;0.50;;;6.60;91.30;;;;;;5000111;28;20052;-70
2021/03/05 09:46:32;;;;;;;1.08;0.50;;;6.80;91.10;;;;;;5003029;28;20140;-70
2021/03/05 09:49:18;;;;;;;0.90;0.50;;;6.80;90.90;;;;;;5002827;28;20134;-69
2021/03/05 09:51:45;;;;;;;2.03;0.80;;;7.00;90.80;;;;;;5004716;28;20103;-70
2021/03/05 09:54:11;;;;;;;0.90;0.45;;;7.10;90.80;;;;;;5000972;28;20046;-70
2021/03/05 09:56:55;;;;;;;1.00;0.52;;;7.30;90.70;;;;;;5004255;28;20056;-70
2021/03/05 09:59:21;;;;;;;1.23;0.60;;;7.60;91.20;;;;;;5005704;28;20038;-70
2021/03/05 10:01:47;;;;;;;1.42;0.60;;;7.90;91.40;;;;;;5003043;28;20046;-70
2021/03/05 10:04:14;;;;;;;2.75;0.77;;;8.10;90.80;;;;;;5004905;28;20141;-69
2021/03/05 10:06:40;;;;;;;2.38;0.80;;;8.40;92.10;;;;;;4997946;28;20077;-70
2021/03/05 10:09:09;;;;;;;1.38;0.73;;;8.60;92.10;;;;;;5004081;28;20054;-70
2021/03/05 10:11:37;;;;;;;;;;;8.80;92.60;;;;;;5002002;28;20145;-70
2021/03/05 10:14:11;;;;;;;1.50;0.40;;;8.90;93.40;;;;;;5005486;28;19921;-70
2021/03/05 10:16:40;;;;;;;2.30;0.50;;;9.20;95.80;;;;;;5003359;28;20300;-70
2021/03/05 10:19:09;;;;;;;1.65;0.57;;;9.30;96.30;;;;;;5095304;27;20046;-70
2021/03/05 10:21:48;;;;;;;1.75;1.00;;;9.50;97.20;;;;;;5002097;28;20404;-70
2021/03/05 10:24:17;;;;;;;1.27;0.47;;;9.60;98.60;;;;;;5003950;28;20041;-70
2021/03/05 10:27:18;;;;;;;0.85;0.40;;;9.80;98.90;;;;;;5007230;28;20052;-70
2021/03/05 10:29:50;;;;;;;1.48;0.68;;;9.90;98.50;;;;;;5000852;28;20528;-70
2021/03/05 10:32:27;;;;;;;1.50;0.55;;;9.90;97.70;;;;;;4995757;28;20138;-70
2021/03/05 10:34:56;;;;;;;3.20;0.45;;;10.00;96.90;;;;;;5004528;28;20089;-73
2021/03/05 10:37:23;;;;;;;1.33;0.50;;;10.10;97.30;;;;;;4993479;28;20171;-70
2021/03/05 10:39:51;;;;;;;1.50;0.60;;;10.40;98.10;;;;;;4998620;28;20058;-70
2021/03/05 10:42:19;;;;;;;1.95;0.77;;;10.70;99.00;;;;;;4996838;28;20473;-70
2021/03/05 10:44:48;;;;;;;1.67;0.60;;;10.80;99.10;;;;;;4999316;28;20049;-70
2021/03/05 10:47:16;;;;;;;2.03;0.60;;;11.00;99.70;;;;;;4998553;28;20053;-70
2021/03/05 10:49:45;;;;;;;2.88;0.60;;;11.00;97.80;;;;;;4997550;28;20136;-70
2021/03/05 10:52:12;;;;;;;2.92;0.65;;;10.90;96.90;;;;;;4999959;28;20046;-70
2021/03/05 10:54:39;;;;;;;1.75;0.73;;;11.00;97.50;;;;;;5002721;28;20056;-70
2021/03/05 10:57:11;;;;;;;2.53;0.70;;;11.20;98.80;;;;;;5000167;28;20106;-69
2021/03/05 10:59:38;;;;;;;2.35;0.60;;;11.40;99.10;;;;;;5003689;28;20062;-69
2021/03/05 11:02:05;;;;;;;2.92;0.50;;;11.70;99.80;;;;;;5001585;28;20062;-70
2021/03/05 11:04:31;;;;;;;1.52;0.40;;;11.90;99.70;;;;;;5000285;28;20188;-70
2021/03/05 11:06:57;;;;;;;1.45;0.50;;;12.20;99.90;;;;;;5000907;28;20134;-70
2021/03/05 11:09:25;;;;;;;1.52;0.50;;;12.40;99.90;;;;;;5003633;28;20488;-70
2021/03/05 11:11:52;;;;;;;2.25;0.70;;;12.60;99.90;;;;;;5001257;28;20166;-70
2021/03/05 11:14:20;;;;;;;3.67;0.77;;;12.80;99.90;;;;;;5004985;28;20046;-70
2021/03/05 11:16:46;;;;;;;1.55;0.50;;;12.90;99.90;;;;;;5099744;27;21632;-69
2021/03/05 11:19:13;;;;;;;2.35;0.55;;;13.00;99.90;;;;;;5004515;28;20728;-70
2021/03/05 11:21:40;;;;;;;1.70;0.55;;;13.20;99.90;;;;;;4999168;28;20328;-71
2021/03/05 11:24:07;;;;;;;2.97;0.73;;;13.50;99.90;;;;;;5006412;28;20145;-70
2021/03/05 11:26:34;;;;;;;1.63;0.70;;;13.60;99.90;;;;;;5004723;28;22904;-70
2021/03/05 11:29:00;;;;;;;2.00;0.50;;;13.80;99.90;;;;;;5004684;28;20053;-70
2021/03/05 11:31:27;;;;;;;2.00;0.73;;;13.90;99.90;;;;;;5003049;28;20138;-70
2021/03/05 11:33:53;;;;;;;1.30;0.50;;;13.80;99.90;;;;;;5007127;28;20469;-70
2021/03/05 11:36:20;;;;;;;2.13;0.75;;;13.80;99.90;;;;;;5003787;28;20057;-70
2021/03/05 11:38:49;;;;;;;3.20;0.82;;;13.90;99.90;;;;;;5004962;28;20057;-70
2021/03/05 11:41:17;;;;;;;1.13;0.50;;;14.20;99.90;;;;;;5008344;28;20073;-71
2021/03/05 11:43:47;;;;;;;2.72;0.80;;;14.40;99.90;;;;;;5003007;28;20046;-70
2021/03/05 11:46:14;;;;;;;1.65;0.50;;;14.60;99.90;;;;;;5001904;28;20053;-71
2021/03/05 11:48:40;;;;;;;3.53;0.68;;;14.70;99.90;;;;;;5004756;28;20049;-70
2021/03/05 11:51:07;;;;;;;2.53;0.70;;;14.80;99.10;;;;;;5003486;28;20069;-70
2021/03/05 11:53:35;;;;;;;1.67;0.60;;;14.70;98.40;;;;;;5000322;28;20073;-70
2021/03/05 11:56:04;;;;;;;2.33;0.60;;;14.70;98.20;;;;;;5095236;27;20050;-70
2021/03/05 11:58:30;;;;;;;3.25;0.75;;;14.70;97.70;;;;;;5003300;28;20045;-70
2021/03/05 12:00:56;;;;;;;5.30;0.50;;;14.70;96.90;;;;;;4998810;28;20056;-70
2021/03/05 12:03:23;;;;;;;1.52;0.40;;;14.90;96.60;;;;;;4998552;28;20357;-70
2021/03/05 12:05:49;;;;;;;2.15;0.70;;;15.00;96.30;;;;;;5004144;28;20042;-70
2021/03/05 12:08:15;;;;;;;1.65;0.60;;;15.20;95.80;;;;;;5000186;28;20126;-70
2021/03/05 12:10:41;;;;;;;1.52;0.63;;;15.40;94.30;;;;;;5001804;28;20044;-70
2021/03/05 12:13:07;;;;;;;1.63;0.75;;;15.40;93.30;;;;;;5007376;28;20469;-70
2021/03/05 12:15:34;;;;;;;2.42;0.70;;;15.50;93.40;;;;;;5001032;28;20050;-71
2021/03/05 12:18:07;;;;;;;2.10;1.00;;;15.70;93.40;;;;;;4996780;28;20037;-70
2021/03/05 12:20:34;;;;;;;1.17;0.57;;;15.90;94.00;;;;;;5003787;28;20128;-70
2021/03/05 12:23:01;;;;;;;2.35;0.70;;;16.10;94.50;;;;;;5001609;28;20058;-70
2021/03/05 12:25:27;;;;;;;1.88;0.65;;;16.30;94.40;;;;;;5005831;28;20046;-70
2021/03/05 12:27:53;;;;;;;2.33;0.73;;;16.40;94.70;;;;;;5002216;28;20050;-70
2021/03/05 12:30:21;;;;;;;2.17;0.60;;;16.30;94.60;;;;;;5001433;28;20126;-71
2021/03/05 12:32:49;;;;;;;2.33;0.70;;;16.50;95.00;;;;;;5000301;28;20521;-70
2021/03/05 12:35:16;;;;;;;1.83;0.70;;;16.70;94.70;;;;;;5001028;28;20516;-70
2021/03/05 12:37:44;;;;;;;2.38;0.63;;;16.80;94.60;;;;;;4997909;28;20118;-70
2021/03/05 12:40:13;;;;;;;1.52;0.63;;;16.80;94.90;;;;;;5005076;28;20060;-70
2021/03/05 12:42:41;;;;;;;2.60;0.75;;;16.80;94.50;;;;;;5002357;28;20053;-70
2021/03/05 12:45:10;;;;;;;2.72;0.70;;;16.50;93.20;;;;;;5095932;27;20072;-70
2021/03/05 12:47:37;;;;;;;2.23;0.83;;;16.20;92.60;;;;;;5000270;28;20038;-71
2021/03/05 12:50:06;;;;;;;2.50;0.60;;;16.10;92.00;;;;;;5003921;28;20079;-70
2021/03/05 12:52:32;;;;;;;2.58;0.70;;;16.10;92.20;;;;;;5006655;28;20060;-71
2021/03/05 12:54:59;;;;;;;2.40;0.60;;;16.20;92.70;;;;;;5006382;28;20182;-70
2021/03/05 12:57:25;;;;;;;3.00;0.90;;;16.20;92.30;;;;;;4997753;28;20125;-70
2021/03/05 12:59:52;;;;;;;2.08;0.70;;;16.10;92.40;;;;;;5003102;28;20133;-71
2021/03/05 13:02:18;;;;;;;1.40;0.65;;;16.10;92.50;;;;;;5005057;28;20554;-70
2021/03/05 13:04:45;;;;;;;2.58;0.80;;;16.00;91.20;;;;;;5007068;28;20057;-70
2021/03/05 13:07:11;;;;;;;2.00;0.70;;;15.60;90.40;;;;;;5000650;28;20050;-70
2021/03/05 13:09:38;;;;;;;3.22;0.77;;;15.20;89.90;;;;;;5000097;28;20058;-70
2021/03/05 13:12:06;;;;;;;2.60;1.00;;;14.80;87.40;;;;;;4997401;28;20080;-69
2021/03/05 13:14:33;;;;;;;1.73;0.68;;;14.50;84.20;;;;;;4999630;28;20042;-70
2021/03/05 13:17:00;;;;;;;2.15;0.80;;;14.10;82.00;;;;;;4999810;28;20397;-70
2021/03/05 13:19:26;;;;;;;1.77;0.73;;;13.90;80.70;;;;;;4998472;28;20074;-69
2021/03/05 13:21:54;;;;;;;2.85;0.82;;;13.60;78.50;;;;;;5008530;28;20458;-70
2021/03/05 13:24:20;;;;;;;1.90;0.70;;;13.50;77.40;;;;;;5000897;28;20048;-70
2021/03/05 13:26:48;;;;;;;1.80;0.80;;;13.40;76.60;;;;;;4998668;28;20234;-70
2021/03/05 13:29:16;;;;;;;2.97;1.00;;;13.30;75.70;;;;;;5001829;28;20457;-70